Time;durP1;ratioP1;P1;durP2;ratioP2;P2;SDS_P1;SDS_P2;PMS_P1;PMS_P2;Temp;Humidity;BMP_temperature;BMP_pressure;BME280_temperature;BME280_humidity;BME280_pressure;Samples;Min_cycle;Max_cycle;Signal;HPM_P1;HPM_P2
2023/06/23 00:00:32;;;;;;;23.57;19.33;;;17.40;91.80;;;;;;4972294;28;20340;-70
2023/06/23 00:02:57;;;;;;;25.13;20.73;;;17.40;92.00;;;;;;4952782;28;20842;-70
2023/06/23 00:05:25;;;;;;;24.67;21.30;;;17.30;92.20;;;;;;4982937;28;20290;-70
2023/06/23 00:07:51;;;;;;;30.07;22.43;;;17.30;92.10;;;;;;4968618;28;20533;-70
2023/06/23 00:10:16;;;;;;;24.60;22.00;;;17.30;92.90;;;;;;4971639;28;20286;-70
2023/06/23 00:12:42;;;;;;;27.63;23.50;;;17.30;92.90;;;;;;4985974;28;20162;-70
2023/06/23 00:15:10;;;;;;;26.37;22.30;;;17.20;93.10;;;;;;4954836;28;20522;-70
2023/06/23 00:17:36;;;;;;;25.97;22.27;;;17.20;93.10;;;;;;4984624;28;20086;-70
2023/06/23 00:20:07;;;;;;;26.60;23.80;;;17.20;94.00;;;;;;4971225;28;21184;-70
2023/06/23 00:22:33;;;;;;;28.33;23.80;;;17.10;94.40;;;;;;4982152;28;20282;-70
2023/06/23 00:24:59;;;;;;;27.50;23.80;;;17.10;95.30;;;;;;4987448;28;20290;-70
2023/06/23 00:27:25;;;;;;;26.83;23.77;;;17.10;94.90;;;;;;4971622;28;20043;-70
2023/06/23 00:29:51;;;;;;;28.83;24.53;;;17.00;94.70;;;;;;4975254;28;20399;-70
2023/06/23 00:32:17;;;;;;;28.20;24.37;;;17.00;95.60;;;;;;4955988;28;20038;-70
2023/06/23 00:34:42;;;;;;;28.60;25.13;;;17.00;95.70;;;;;;4971766;28;20478;-70
2023/06/23 00:37:09;;;;;;;32.43;25.63;;;17.00;95.90;;;;;;4968126;28;20297;-70
2023/06/23 00:39:35;;;;;;;30.17;24.67;;;16.90;95.20;;;;;;4993454;28;20038;-70
2023/06/23 00:42:06;;;;;;;29.93;25.37;;;16.90;94.90;;;;;;4993685;28;20285;-70
2023/06/23 00:44:33;;;;;;;30.50;24.83;;;16.90;94.80;;;;;;4982636;28;20116;-70
2023/06/23 00:47:00;;;;;;;32.60;26.60;;;16.80;95.10;;;;;;4978700;28;20745;-70
2023/06/23 00:49:26;;;;;;;30.87;26.83;;;16.80;95.60;;;;;;4977931;28;20307;-70
2023/06/23 00:51:53;;;;;;;32.10;26.73;;;16.80;96.90;;;;;;4973292;28;20286;-70
2023/06/23 00:54:19;;;;;;;32.30;27.17;;;16.80;97.00;;;;;;4977534;28;20808;-70
2023/06/23 00:56:44;;;;;;;30.70;26.67;;;16.70;96.50;;;;;;4994525;28;20300;-70
2023/06/23 00:59:10;;;;;;;34.13;29.43;;;16.70;97.20;;;;;;4981446;28;20070;-70
2023/06/23 01:01:36;;;;;;;32.93;28.10;;;16.70;97.50;;;;;;4977822;28;20522;-70
2023/06/23 01:04:02;;;;;;;34.00;29.83;;;16.70;98.20;;;;;;4992019;28;21447;-70
2023/06/23 01:06:46;;;;;;;34.70;30.13;;;16.60;97.40;;;;;;4976545;28;20038;-70
2023/06/23 01:09:31;;;;;;;35.65;30.02;;;16.60;97.50;;;;;;4979725;28;20039;-70
2023/06/23 01:12:24;;;;;;;36.22;30.10;;;16.50;97.70;;;;;;4992861;28;20046;-70
2023/06/23 01:15:29;;;;;;;35.33;30.33;;;16.50;98.20;;;;;;4974574;28;20117;-70
2023/06/23 01:18:13;;;;;;;38.77;31.57;;;16.40;98.10;;;;;;4992669;28;20286;-70
2023/06/23 01:20:41;;;;;;;38.23;31.13;;;16.40;98.00;;;;;;4976818;28;20339;-70
2023/06/23 01:23:35;;;;;;;42.07;31.90;;;16.30;98.60;;;;;;4990643;28;20318;-70
2023/06/23 01:26:26;;;;;;;37.27;31.63;;;16.20;98.60;;;;;;4973943;28;20286;-70
2023/06/23 01:28:58;;;;;;;38.80;31.03;;;16.20;99.20;;;;;;4994511;28;20278;-70
2023/06/23 01:31:40;;;;;;;37.00;32.00;;;16.10;99.90;;;;;;4980086;28;20606;-70
2023/06/23 01:34:09;;;;;;;44.07;37.77;;;16.10;99.80;;;;;;4976662;28;21090;-70
2023/06/23 01:36:50;;;;;;;50.97;41.70;;;15.90;99.60;;;;;;4980550;28;20819;-70
2023/06/23 01:39:19;;;;;;;52.33;43.33;;;15.80;99.90;;;;;;4975562;28;20348;-70
2023/06/23 01:41:52;;;;;;;51.90;45.17;;;15.70;99.90;;;;;;4961188;28;21000;-70
2023/06/23 01:44:22;;;;;;;51.50;44.33;;;15.60;99.70;;;;;;4978054;28;20317;-70
2023/06/23 01:46:52;;;;;;;51.80;46.10;;;15.50;99.90;;;;;;4991535;28;20766;-70
2023/06/23 01:49:24;;;;;;;53.63;46.33;;;15.50;99.60;;;;;;4965967;28;20652;-70
2023/06/23 01:51:52;;;;;;;53.07;46.67;;;15.40;99.90;;;;;;4967655;28;20290;-70
2023/06/23 01:54:20;;;;;;;55.30;49.17;;;15.40;99.90;;;;;;4977207;28;20708;-70
2023/06/23 01:56:47;;;;;;;54.13;48.07;;;15.40;99.90;;;;;;4973358;28;20308;-70
2023/06/23 01:59:14;;;;;;;66.70;55.07;;;15.40;99.90;;;;;;4973415;28;20855;-70
2023/06/23 02:01:42;;;;;;;66.07;52.93;;;15.40;99.90;;;;;;4974444;28;20274;-70
2023/06/23 02:04:09;;;;;;;63.67;53.87;;;15.40;99.90;;;;;;4972756;28;20286;-70
2023/06/23 02:06:37;;;;;;;75.73;58.10;;;15.30;99.90;;;;;;4972818;28;20286;-70
2023/06/23 02:09:08;;;;;;;67.90;54.07;;;15.30;99.90;;;;;;4959129;28;20288;-70
2023/06/23 02:11:35;;;;;;;69.00;55.13;;;15.30;99.90;;;;;;4968986;28;20328;-70
2023/06/23 02:14:02;;;;;;;72.67;56.13;;;15.30;99.90;;;;;;4954641;28;20816;-70
2023/06/23 02:16:30;;;;;;;71.13;56.60;;;15.30;99.90;;;;;;4957999;28;20323;-70
2023/06/23 02:18:57;;;;;;;76.03;56.47;;;15.30;99.90;;;;;;4967044;28;20714;-70
2023/06/23 02:21:24;;;;;;;75.63;57.43;;;15.30;99.90;;;;;;4981646;28;20293;-70
2023/06/23 02:23:51;;;;;;;70.03;55.13;;;15.30;99.90;;;;;;4990563;28;20483;-70
2023/06/23 02:26:17;;;;;;;79.33;58.87;;;15.30;99.90;;;;;;4972549;28;20907;-70
2023/06/23 02:28:49;;;;;;;80.37;59.00;;;15.30;99.90;;;;;;4974942;28;20274;-70
2023/06/23 02:31:22;;;;;;;74.90;56.60;;;15.30;99.90;;;;;;4973625;28;20326;-70
2023/06/23 02:33:49;;;;;;;74.57;54.53;;;15.20;99.90;;;;;;4953763;28;20274;-70
2023/06/23 02:36:20;;;;;;;69.07;53.90;;;15.30;99.90;;;;;;4969316;28;20278;-70
2023/06/23 02:38:48;;;;;;;71.87;54.97;;;15.20;99.90;;;;;;4973747;28;20270;-70
2023/06/23 02:41:17;;;;;;;69.27;52.30;;;15.20;99.90;;;;;;4973001;28;20572;-70
2023/06/23 02:43:55;;;;;;;69.10;51.10;;;15.20;99.90;;;;;;4969128;28;20278;-70
2023/06/23 02:46:27;;;;;;;78.73;54.47;;;15.20;99.90;;;;;;4976726;28;20289;-70
2023/06/23 02:49:05;;;;;;;67.40;50.33;;;15.20;99.90;;;;;;4967542;28;20317;-70
2023/06/23 02:51:34;;;;;;;71.03;52.17;;;15.20;99.90;;;;;;4969114;28;20318;-70
2023/06/23 02:54:11;;;;;;;71.17;49.77;;;15.20;99.90;;;;;;4975083;28;20279;-70
2023/06/23 02:56:42;;;;;;;68.87;49.63;;;15.30;99.90;;;;;;4973861;28;20301;-70
2023/06/23 02:59:12;;;;;;;69.70;49.20;;;15.30;99.90;;;;;;4977979;28;20301;-70
2023/06/23 03:01:40;;;;;;;72.30;49.10;;;15.30;99.90;;;;;;4973199;28;20270;-70
2023/06/23 03:04:06;;;;;;;68.27;46.97;;;15.30;99.90;;;;;;4978264;28;20836;-70
2023/06/23 03:06:35;;;;;;;63.50;45.07;;;15.30;99.90;;;;;;4988953;28;20405;-70
2023/06/23 03:09:02;;;;;;;51.40;40.63;;;15.30;99.90;;;;;;4994921;28;20505;-70
2023/06/23 03:11:30;;;;;;;61.33;41.50;;;15.20;99.90;;;;;;4962630;28;20495;-70
2023/06/23 03:13:56;;;;;;;58.80;41.30;;;15.20;99.90;;;;;;4972810;28;20317;-70
2023/06/23 03:16:59;;;;;;;63.20;42.83;;;15.20;99.90;;;;;;4971536;28;20369;-70
2023/06/23 03:19:51;;;;;;;58.73;41.43;;;15.20;99.90;;;;;;4971170;28;20373;-70
2023/06/23 03:22:23;;;;;;;65.00;42.93;;;15.20;99.90;;;;;;4943620;28;20349;-69
2023/06/23 03:25:16;;;;;;;57.80;41.47;;;15.20;99.90;;;;;;4981517;28;20360;-69
2023/06/23 03:27:44;;;;;;;57.10;40.20;;;15.10;99.90;;;;;;4973445;28;20365;-67
2023/06/23 03:30:23;;;;;;;53.07;38.17;;;15.10;99.90;;;;;;5001364;28;20352;-68
2023/06/23 03:32:52;;;;;;;58.70;39.13;;;15.10;99.90;;;;;;4973286;28;20282;-68
2023/06/23 03:35:21;;;;;;;61.83;40.23;;;15.10;99.90;;;;;;4965548;28;20330;-68
2023/06/23 03:37:50;;;;;;;53.00;37.23;;;15.00;99.90;;;;;;4981801;28;20329;-68
2023/06/23 03:40:20;;;;;;;54.60;38.00;;;15.00;99.90;;;;;;4976675;28;20293;-68
2023/06/23 03:42:54;;;;;;;53.87;36.53;;;15.00;99.90;;;;;;4980727;28;20273;-68
2023/06/23 03:45:23;;;;;;;48.63;34.33;;;15.00;99.90;;;;;;4979573;28;20282;-68
2023/06/23 03:47:52;;;;;;;50.20;34.27;;;15.00;99.90;;;;;;4976567;28;20357;-68
2023/06/23 03:50:22;;;;;;;47.70;33.63;;;15.00;99.90;;;;;;4976935;28;20298;-68
2023/06/23 03:52:50;;;;;;;55.17;35.77;;;15.00;99.90;;;;;;4957272;28;20842;-68
2023/06/23 03:55:19;;;;;;;46.37;32.97;;;14.90;99.90;;;;;;4976330;28;20306;-68
2023/06/23 03:57:48;;;;;;;52.47;35.53;;;15.00;99.90;;;;;;4977261;28;20288;-68
2023/06/23 04:00:15;;;;;;;48.47;33.50;;;15.00;99.90;;;;;;4973204;28;20362;-68
2023/06/23 04:02:43;;;;;;;50.83;32.10;;;15.00;99.90;;;;;;4963122;28;20275;-68
2023/06/23 04:05:13;;;;;;;49.83;33.63;;;15.00;99.90;;;;;;4971767;28;20317;-68
2023/06/23 04:07:40;;;;;;;45.83;31.13;;;15.00;99.90;;;;;;4971556;28;20286;-68
2023/06/23 04:10:08;;;;;;;45.10;30.80;;;15.00;99.90;;;;;;4996042;28;20366;-68
2023/06/23 04:12:35;;;;;;;41.67;28.87;;;15.00;99.90;;;;;;4970666;28;20282;-68
2023/06/23 04:15:04;;;;;;;48.43;32.20;;;15.00;99.90;;;;;;4958834;28;20302;-68
2023/06/23 04:17:33;;;;;;;40.03;30.07;;;15.10;99.90;;;;;;4975923;28;20293;-68
2023/06/23 04:20:03;;;;;;;44.90;28.93;;;15.10;99.90;;;;;;4990300;28;20286;-68
2023/06/23 04:22:30;;;;;;;40.83;26.57;;;15.10;99.90;;;;;;4973025;28;20340;-68
2023/06/23 04:24:59;;;;;;;37.40;27.83;;;15.10;99.90;;;;;;4975168;28;20277;-68
2023/06/23 04:27:27;;;;;;;37.10;27.43;;;15.20;99.90;;;;;;4954723;28;20311;-68
2023/06/23 04:29:54;;;;;;;37.40;25.87;;;15.20;99.90;;;;;;4988525;28;20348;-68
2023/06/23 04:32:23;;;;;;;36.97;26.50;;;15.30;99.90;;;;;;4986563;28;20293;-68
2023/06/23 04:34:49;;;;;;;35.73;25.90;;;15.30;99.90;;;;;;4997161;28;20332;-68
2023/06/23 04:37:36;;;;;;;36.17;24.77;;;15.40;99.90;;;;;;4974053;28;20321;-68
2023/06/23 04:40:07;;;;;;;38.43;24.67;;;15.50;99.90;;;;;;4973408;28;20398;-68
2023/06/23 04:42:48;;;;;;;39.97;25.97;;;15.50;99.90;;;;;;4988824;28;20290;-68
2023/06/23 04:45:19;;;;;;;36.07;25.13;;;15.60;99.90;;;;;;4992590;28;20281;-68
2023/06/23 04:47:52;;;;;;;37.93;25.37;;;15.70;99.90;;;;;;4976465;28;20282;-68
2023/06/23 04:50:21;;;;;;;32.63;25.00;;;15.70;99.90;;;;;;4976439;28;20376;-68
2023/06/23 04:52:52;;;;;;;36.87;24.67;;;15.80;99.90;;;;;;4958835;28;20337;-68
2023/06/23 04:55:20;;;;;;;32.93;25.27;;;15.80;99.90;;;;;;4991205;28;20697;-68
2023/06/23 04:57:48;;;;;;;33.30;24.93;;;15.90;99.90;;;;;;4973333;28;20313;-68
2023/06/23 05:00:20;;;;;;;36.90;24.50;;;16.10;99.90;;;;;;4977493;28;20293;-68
2023/06/23 05:02:48;;;;;;;34.27;25.17;;;16.50;99.90;;;;;;4989579;28;20278;-68
2023/06/23 05:05:20;;;;;;;36.73;25.67;;;16.70;99.90;;;;;;4977681;28;20313;-68
2023/06/23 05:07:48;;;;;;;32.57;25.57;;;17.00;99.90;;;;;;4974675;28;20297;-68
2023/06/23 05:10:16;;;;;;;31.63;25.13;;;17.50;99.90;;;;;;4963135;28;20302;-68
2023/06/23 05:12:45;;;;;;;29.60;22.80;;;18.40;99.90;;;;;;4975931;28;20359;-68
2023/06/23 05:15:15;;;;;;;29.50;21.37;;;19.30;99.90;;;;;;4974683;28;20302;-68
2023/06/23 05:17:42;;;;;;;24.37;20.27;;;20.00;94.90;;;;;;4971903;28;20807;-68
2023/06/23 05:20:09;;;;;;;24.70;20.60;;;20.50;90.40;;;;;;4974390;28;20312;-68
2023/06/23 05:22:37;;;;;;;22.53;18.17;;;21.00;87.40;;;;;;4994244;28;20353;-68
2023/06/23 05:25:06;;;;;;;22.37;17.73;;;21.50;86.20;;;;;;4961955;28;20285;-68
2023/06/23 05:27:35;;;;;;;22.23;18.10;;;21.80;84.40;;;;;;4976205;28;20381;-68
2023/06/23 05:30:03;;;;;;;21.20;16.70;;;22.10;83.40;;;;;;4982102;28;20289;-68
2023/06/23 05:32:32;;;;;;;24.87;18.17;;;22.40;81.80;;;;;;4974680;28;20289;-69
2023/06/23 05:35:03;;;;;;;21.10;17.10;;;22.50;81.20;;;;;;4963930;28;20045;-69
2023/06/23 05:37:33;;;;;;;21.77;16.63;;;22.60;79.50;;;;;;4978655;28;20089;-69
2023/06/23 05:40:02;;;;;;;21.20;16.70;;;22.50;79.50;;;;;;4968240;28;20122;-69
2023/06/23 05:42:29;;;;;;;21.20;15.47;;;22.50;79.80;;;;;;4988711;28;20411;-69
2023/06/23 05:44:55;;;;;;;21.10;16.90;;;22.60;79.30;;;;;;4959284;28;20047;-69
2023/06/23 05:47:25;;;;;;;19.27;16.47;;;22.60;78.90;;;;;;4958978;28;20047;-69
2023/06/23 05:49:54;;;;;;;20.03;16.43;;;22.70;79.20;;;;;;4974274;28;20137;-69
2023/06/23 05:52:22;;;;;;;20.37;15.83;;;22.90;79.00;;;;;;4987565;28;20126;-69
2023/06/23 05:54:50;;;;;;;20.00;16.43;;;23.00;76.70;;;;;;4976914;28;20039;-69
2023/06/23 05:57:27;;;;;;;20.40;16.10;;;22.80;77.40;;;;;;4978665;28;20054;-69
2023/06/23 06:00:16;;;;;;;18.80;15.77;;;22.20;79.70;;;;;;4958750;28;20410;-69
2023/06/23 06:02:46;;;;;;;20.13;16.87;;;22.00;80.80;;;;;;4992742;28;20092;-69
2023/06/23 06:05:17;;;;;;;20.10;17.37;;;22.30;81.30;;;;;;4994326;28;20047;-69
2023/06/23 06:07:45;;;;;;;22.37;18.90;;;22.50;79.50;;;;;;4957798;28;20109;-69
2023/06/23 06:10:12;;;;;;;20.03;16.37;;;22.50;78.30;;;;;;4993220;28;20046;-69
2023/06/23 06:12:40;;;;;;;19.23;15.60;;;22.50;78.90;;;;;;4961308;28;20043;-69
2023/06/23 06:15:07;;;;;;;19.13;15.80;;;22.40;78.80;;;;;;4960401;28;20035;-69
2023/06/23 06:17:35;;;;;;;16.87;14.00;;;22.50;77.70;;;;;;4960714;28;20031;-69
2023/06/23 06:20:04;;;;;;;14.60;11.47;;;22.70;76.40;;;;;;4958017;28;20045;-69
2023/06/23 06:22:33;;;;;;;15.43;11.63;;;22.90;74.90;;;;;;4975767;28;20371;-69
2023/06/23 06:25:01;;;;;;;13.33;10.83;;;23.10;73.60;;;;;;4976716;28;20046;-69
2023/06/23 06:27:29;;;;;;;13.00;11.50;;;23.30;72.40;;;;;;4975148;28;20039;-69
2023/06/23 06:29:56;;;;;;;12.30;11.00;;;23.40;72.30;;;;;;4971038;28;20400;-69
2023/06/23 06:32:23;;;;;;;12.63;10.30;;;23.60;71.60;;;;;;4977899;28;20043;-69
2023/06/23 06:34:50;;;;;;;13.50;11.37;;;23.80;71.00;;;;;;4981843;28;20049;-69
2023/06/23 06:37:19;;;;;;;13.87;10.40;;;23.80;70.10;;;;;;4974266;28;20042;-69
2023/06/23 06:39:45;;;;;;;11.47;10.27;;;23.80;69.70;;;;;;4992252;28;20077;-69
2023/06/23 06:42:11;;;;;;;13.27;10.10;;;23.70;69.80;;;;;;4973734;28;20570;-69
2023/06/23 06:44:38;;;;;;;12.50;10.30;;;23.60;70.20;;;;;;4978242;28;20046;-69
2023/06/23 06:47:07;;;;;;;12.50;10.80;;;23.50;69.80;;;;;;4970418;28;20486;-69
2023/06/23 06:49:35;;;;;;;12.47;10.20;;;23.20;70.90;;;;;;4958874;28;20466;-69
2023/06/23 06:52:03;;;;;;;11.57;9.83;;;23.20;71.90;;;;;;4991408;28;20054;-69
2023/06/23 06:54:28;;;;;;;11.87;8.53;;;23.20;71.10;;;;;;4975678;28;20043;-69
2023/06/23 06:56:55;;;;;;;13.33;9.70;;;23.30;71.00;;;;;;4973663;28;20075;-69
2023/06/23 06:59:21;;;;;;;11.03;9.27;;;23.40;70.50;;;;;;4977310;28;20503;-69
2023/06/23 07:01:48;;;;;;;9.60;7.10;;;23.30;70.90;;;;;;4976991;28;20042;-69
2023/06/23 07:04:14;;;;;;;10.60;8.43;;;23.00;69.90;;;;;;4976158;28;20046;-69
2023/06/23 07:06:40;;;;;;;11.07;8.60;;;22.90;70.60;;;;;;4973514;28;20047;-69
2023/06/23 07:09:06;;;;;;;11.53;8.57;;;22.80;71.60;;;;;;4974326;28;20034;-69
2023/06/23 07:11:32;;;;;;;9.63;7.83;;;22.70;71.80;;;;;;4959587;28;20042;-70
2023/06/23 07:14:00;;;;;;;9.70;7.47;;;22.60;71.90;;;;;;4956874;28;20043;-69
2023/06/23 07:16:30;;;;;;;8.70;7.47;;;22.40;72.40;;;;;;4985701;28;20073;-70
2023/06/23 07:18:57;;;;;;;8.20;6.43;;;22.30;72.90;;;;;;4981395;28;20046;-69
2023/06/23 07:21:23;;;;;;;9.43;6.83;;;22.10;73.50;;;;;;4986797;28;20116;-70
2023/06/23 07:23:48;;;;;;;10.57;7.43;;;22.10;73.80;;;;;;4995546;28;20038;-70
2023/06/23 07:26:14;;;;;;;8.87;7.20;;;22.00;74.20;;;;;;4983588;28;20498;-69
2023/06/23 07:28:40;;;;;;;8.50;6.63;;;22.00;75.10;;;;;;4981268;28;20039;-69
2023/06/23 07:31:05;;;;;;;6.57;5.43;;;22.00;75.40;;;;;;4980440;28;20043;-70
2023/06/23 07:33:31;;;;;;;8.43;5.80;;;22.10;74.80;;;;;;4978693;28;20043;-70
2023/06/23 07:35:57;;;;;;;8.40;5.63;;;22.00;73.70;;;;;;4978199;28;20043;-70
2023/06/23 07:38:23;;;;;;;8.00;5.93;;;22.10;74.20;;;;;;4969614;28;20061;-70
2023/06/23 07:40:48;;;;;;;8.93;6.00;;;22.10;74.10;;;;;;4977737;28;20030;-70
2023/06/23 07:43:14;;;;;;;8.30;6.80;;;22.20;73.90;;;;;;4979798;28;20048;-70
2023/06/23 07:45:41;;;;;;;8.70;6.53;;;22.20;72.80;;;;;;4979913;28;20483;-70
2023/06/23 07:48:07;;;;;;;10.13;6.03;;;22.20;72.40;;;;;;4975917;28;20055;-69
2023/06/23 07:50:33;;;;;;;7.07;5.13;;;22.20;72.90;;;;;;4979364;28;20125;-70
2023/06/23 07:52:58;;;;;;;6.47;5.47;;;22.30;71.80;;;;;;4973031;28;20070;-70
2023/06/23 07:55:25;;;;;;;8.03;5.90;;;22.30;71.50;;;;;;5001721;28;20173;-71
2023/06/23 07:57:51;;;;;;;9.73;5.37;;;22.50;71.10;;;;;;4993470;28;20039;-71
2023/06/23 08:00:17;;;;;;;7.50;5.30;;;22.60;70.60;;;;;;4992262;28;20041;-71
2023/06/23 08:02:43;;;;;;;7.73;4.60;;;22.60;71.00;;;;;;4975255;28;20035;-70
2023/06/23 08:05:09;;;;;;;8.67;5.10;;;22.70;70.50;;;;;;4977244;28;20414;-70
2023/06/23 08:07:35;;;;;;;9.60;5.10;;;22.70;69.60;;;;;;4993643;28;20066;-70
2023/06/23 08:10:01;;;;;;;7.10;5.47;;;22.70;70.50;;;;;;4980413;28;20082;-70
2023/06/23 08:12:28;;;;;;;5.97;5.00;;;22.80;69.20;;;;;;4983083;28;20054;-71
2023/06/23 08:14:57;;;;;;;6.87;4.80;;;22.90;69.20;;;;;;4970934;28;20074;-70
2023/06/23 08:17:26;;;;;;;6.47;4.77;;;22.90;69.00;;;;;;4959149;28;20050;-69
2023/06/23 08:19:55;;;;;;;6.37;4.13;;;22.80;68.50;;;;;;4972434;28;20062;-71
2023/06/23 08:22:20;;;;;;;9.33;4.33;;;22.80;69.00;;;;;;4979369;28;20526;-70
2023/06/23 08:24:46;;;;;;;4.07;3.63;;;22.80;69.40;;;;;;4972633;28;20046;-70
2023/06/23 08:27:12;;;;;;;6.20;4.00;;;22.80;68.70;;;;;;4975159;28;20050;-70
2023/06/23 08:29:38;;;;;;;5.73;4.00;;;22.80;68.90;;;;;;4976456;28;20132;-70
2023/06/23 08:32:08;;;;;;;7.07;4.43;;;22.90;69.40;;;;;;4976359;28;20530;-70
2023/06/23 08:34:33;;;;;;;6.43;4.40;;;22.90;69.50;;;;;;4975907;28;20043;-70
2023/06/23 08:36:59;;;;;;;4.83;3.70;;;22.90;69.30;;;;;;4956510;28;20090;-70
2023/06/23 08:39:25;;;;;;;5.60;3.60;;;22.80;68.40;;;;;;4975437;28;20490;-70
2023/06/23 08:41:54;;;;;;;5.80;3.87;;;22.70;68.50;;;;;;4960753;28;20043;-70
2023/06/23 08:44:24;;;;;;;5.50;4.20;;;22.80;67.90;;;;;;4976552;28;20105;-70
2023/06/23 08:46:57;;;;;;;5.53;4.10;;;22.90;67.50;;;;;;4971906;28;20046;-70
2023/06/23 08:49:24;;;;;;;8.20;4.70;;;23.00;67.60;;;;;;4977733;28;20122;-70
2023/06/23 08:51:50;;;;;;;9.13;5.33;;;23.20;67.50;;;;;;4993099;28;20094;-69
2023/06/23 08:54:16;;;;;;;7.17;4.30;;;23.10;67.30;;;;;;4961419;28;20081;-70
2023/06/23 08:56:46;;;;;;;5.03;3.63;;;22.90;67.60;;;;;;4977267;28;20035;-71
2023/06/23 08:59:14;;;;;;;6.07;3.80;;;22.80;65.40;;;;;;4978804;28;20043;-71
2023/06/23 09:01:40;;;;;;;4.67;4.13;;;22.90;65.80;;;;;;4964360;28;20379;-71
2023/06/23 09:04:07;;;;;;;6.60;4.07;;;23.00;65.10;;;;;;4982323;28;20116;-70
2023/06/23 09:06:33;;;;;;;6.77;4.20;;;23.10;66.70;;;;;;4984036;28;20031;-70
2023/06/23 09:09:00;;;;;;;6.97;4.10;;;23.30;66.60;;;;;;4986093;28;20058;-70
2023/06/23 09:11:26;;;;;;;10.00;4.80;;;23.40;65.40;;;;;;4970220;28;20046;-70
2023/06/23 09:13:54;;;;;;;7.00;4.07;;;23.40;65.50;;;;;;5006020;28;20039;-70
2023/06/23 09:16:21;;;;;;;8.13;5.20;;;23.50;65.10;;;;;;4979587;28;20047;-70
2023/06/23 09:18:47;;;;;;;4.37;3.37;;;23.50;64.60;;;;;;4979523;28;20042;-70
2023/06/23 09:21:14;;;;;;;5.60;4.30;;;23.40;62.30;;;;;;4974141;28;20047;-70
2023/06/23 09:24:02;;;;;;;5.37;4.20;;;23.30;62.20;;;;;;4964316;28;20062;-70
2023/06/23 09:26:29;;;;;;;7.07;4.60;;;23.30;63.20;;;;;;4979668;28;20054;-70
2023/06/23 09:29:17;;;;;;;6.97;4.57;;;23.50;63.30;;;;;;4985485;28;20042;-70
2023/06/23 09:31:44;;;;;;;5.80;4.73;;;23.60;62.40;;;;;;4998599;28;20118;-70
2023/06/23 09:34:30;;;;;;;6.33;4.80;;;23.50;63.00;;;;;;4981850;28;20039;-70
2023/06/23 09:37:11;;;;;;;7.07;4.17;;;23.50;63.00;;;;;;4962135;28;20058;-70
2023/06/23 09:39:41;;;;;;;6.00;4.47;;;23.50;61.80;;;;;;4987438;28;20364;-70
2023/06/23 09:42:11;;;;;;;6.30;4.37;;;23.50;61.40;;;;;;4962678;28;20038;-71
2023/06/23 09:44:42;;;;;;;6.53;4.63;;;23.50;61.80;;;;;;4980573;28;20038;-70
2023/06/23 09:47:09;;;;;;;7.30;4.50;;;23.60;61.30;;;;;;4979751;28;20085;-71
2023/06/23 09:49:39;;;;;;;6.60;4.70;;;23.60;61.60;;;;;;4980616;28;20090;-71
2023/06/23 09:52:06;;;;;;;6.83;5.30;;;23.60;61.80;;;;;;4976904;28;20074;-71
2023/06/23 09:54:36;;;;;;;5.50;4.37;;;23.60;61.80;;;;;;4978168;28;20066;-71
2023/06/23 09:57:11;;;;;;;6.37;4.20;;;23.80;61.20;;;;;;4977770;28;20055;-71
2023/06/23 09:59:38;;;;;;;;;;;23.90;60.90;;;;;;4982757;28;20043;-71
2023/06/23 10:02:09;;;;;;;6.50;4.63;;;23.80;61.60;;;;;;4976023;28;19918;-71
2023/06/23 10:04:36;;;;;;;7.43;4.03;;;23.90;61.40;;;;;;4966219;28;20096;-71
2023/06/23 10:07:37;;;;;;;5.23;4.70;;;24.00;60.80;;;;;;4985164;28;20049;-71
2023/06/23 10:10:08;;;;;;;7.70;5.80;;;24.10;59.40;;;;;;4956679;28;20040;-71
2023/06/23 10:12:36;;;;;;;6.17;4.10;;;24.00;59.90;;;;;;4970491;28;20490;-71
2023/06/23 10:15:06;;;;;;;8.57;4.80;;;24.00;58.90;;;;;;4957474;28;20043;-71
2023/06/23 10:17:32;;;;;;;9.40;4.90;;;24.10;59.60;;;;;;4983283;28;20047;-70
2023/06/23 10:19:58;;;;;;;6.30;4.93;;;24.00;60.10;;;;;;4967768;28;20125;-70
2023/06/23 10:22:25;;;;;;;7.77;4.63;;;23.90;59.90;;;;;;4966126;28;20073;-70
2023/06/23 10:24:52;;;;;;;6.83;4.70;;;23.70;59.80;;;;;;4988023;28;20133;-70
2023/06/23 10:27:24;;;;;;;6.97;4.53;;;23.60;60.40;;;;;;4981074;28;20487;-70
2023/06/23 10:29:55;;;;;;;7.43;4.43;;;23.70;59.10;;;;;;4972120;28;20584;-70
2023/06/23 10:32:28;;;;;;;6.37;4.97;;;23.80;59.90;;;;;;4977392;28;20077;-70
2023/06/23 10:34:57;;;;;;;6.63;4.40;;;23.90;59.90;;;;;;4962862;28;20046;-70
2023/06/23 10:37:25;;;;;;;7.90;4.13;;;23.90;60.10;;;;;;4979942;28;20038;-70
2023/06/23 10:39:56;;;;;;;6.93;5.00;;;24.00;59.90;;;;;;4984476;28;20449;-70
2023/06/23 10:42:23;;;;;;;6.07;4.30;;;24.00;57.10;;;;;;4978514;28;20534;-70
2023/06/23 10:44:52;;;;;;;6.57;4.33;;;24.00;57.70;;;;;;4968689;28;20116;-70
2023/06/23 10:47:17;;;;;;;5.50;3.50;;;23.90;57.00;;;;;;4954113;28;20084;-70
2023/06/23 10:49:47;;;;;;;4.77;3.73;;;23.90;56.00;;;;;;4972304;28;20405;-70
2023/06/23 10:52:14;;;;;;;6.23;4.07;;;23.80;53.70;;;;;;4968606;28;20499;-70
2023/06/23 10:54:40;;;;;;;7.30;4.10;;;23.90;55.70;;;;;;4949474;28;20074;-71
2023/06/23 10:57:10;;;;;;;8.63;3.60;;;23.90;56.60;;;;;;4969369;28;20057;-71
2023/06/23 10:59:44;;;;;;;4.83;3.40;;;24.00;55.60;;;;;;4973737;28;20077;-70
2023/06/23 11:02:20;;;;;;;5.68;3.50;;;24.00;53.40;;;;;;4975864;28;20070;-70
2023/06/23 11:04:52;;;;;;;6.10;3.20;;;24.10;51.40;;;;;;4988301;28;20070;-70
2023/06/23 11:07:18;;;;;;;5.47;2.70;;;24.20;52.20;;;;;;4974633;28;20046;-71
2023/06/23 11:09:54;;;;;;;5.07;2.80;;;24.30;50.90;;;;;;4965675;28;20395;-71
2023/06/23 11:12:42;;;;;;;4.47;2.40;;;24.40;51.70;;;;;;4985581;28;20049;-71
2023/06/23 11:15:20;;;;;;;3.90;2.67;;;24.50;46.50;;;;;;4974946;28;20049;-71
2023/06/23 11:17:46;;;;;;;5.27;2.80;;;24.50;47.20;;;;;;4998191;28;20043;-71
2023/06/23 11:20:26;;;;;;;4.13;2.50;;;24.40;47.90;;;;;;4999332;28;20038;-71
2023/06/23 11:22:59;;;;;;;4.47;2.40;;;24.40;49.00;;;;;;4977335;28;20093;-71
2023/06/23 11:25:41;;;;;;;9.47;2.80;;;24.50;49.50;;;;;;4982622;28;20049;-71
2023/06/23 11:28:23;;;;;;;3.80;2.40;;;24.40;49.00;;;;;;4960443;28;20055;-71
2023/06/23 11:30:55;;;;;;;4.10;3.23;;;24.50;47.70;;;;;;4975173;28;20039;-69
2023/06/23 11:33:26;;;;;;;4.67;2.47;;;24.40;50.30;;;;;;4989882;28;20110;-69
2023/06/23 11:35:53;;;;;;;5.20;3.30;;;24.60;50.10;;;;;;4974486;28;20039;-69
2023/06/23 11:38:19;;;;;;;3.63;2.53;;;24.60;50.10;;;;;;4975203;28;20042;-69
2023/06/23 11:40:47;;;;;;;5.33;2.83;;;24.60;48.70;;;;;;4976371;28;20514;-69
2023/06/23 11:43:18;;;;;;;4.47;3.27;;;24.70;48.10;;;;;;4992484;28;20088;-71
2023/06/23 11:45:49;;;;;;;3.03;2.53;;;24.60;49.40;;;;;;4973735;28;20042;-71
2023/06/23 11:48:15;;;;;;;3.37;2.30;;;24.70;49.20;;;;;;4975329;28;20059;-71
2023/06/23 11:50:44;;;;;;;5.50;2.70;;;24.60;47.70;;;;;;4958018;28;20046;-70
2023/06/23 11:53:10;;;;;;;3.50;2.40;;;24.50;49.00;;;;;;4954458;28;20094;-71
2023/06/23 11:55:36;;;;;;;5.70;2.10;;;24.50;48.40;;;;;;4958259;28;20419;-71
2023/06/23 11:58:02;;;;;;;3.03;2.30;;;24.70;47.60;;;;;;4962891;28;20089;-71
2023/06/23 12:00:28;;;;;;;4.23;2.20;;;24.70;47.10;;;;;;4993243;28;20113;-71
2023/06/23 12:02:54;;;;;;;4.77;2.30;;;24.80;46.10;;;;;;4998953;28;20042;-71
2023/06/23 12:05:20;;;;;;;5.27;2.53;;;24.70;47.40;;;;;;4993189;28;20566;-71
2023/06/23 12:07:47;;;;;;;6.60;2.90;;;24.70;46.90;;;;;;4979623;28;20046;-71
2023/06/23 12:10:13;;;;;;;5.23;2.40;;;24.40;46.20;;;;;;4999136;28;20054;-70
2023/06/23 12:12:39;;;;;;;4.87;2.60;;;24.50;46.90;;;;;;4984078;28;20042;-70
2023/06/23 12:15:08;;;;;;;3.13;2.00;;;24.50;46.40;;;;;;4978978;28;20079;-70
2023/06/23 12:17:44;;;;;;;5.87;2.27;;;24.50;46.20;;;;;;4979566;28;20447;-70
2023/06/23 12:20:10;;;;;;;3.90;2.33;;;24.50;47.90;;;;;;4965910;28;20041;-70
2023/06/23 12:22:37;;;;;;;5.80;2.87;;;24.70;47.70;;;;;;4974894;28;20100;-70
2023/06/23 12:25:06;;;;;;;4.60;2.13;;;24.90;48.70;;;;;;4982787;28;20378;-71
2023/06/23 12:27:35;;;;;;;5.53;2.50;;;25.10;47.30;;;;;;4977363;28;20048;-70
2023/06/23 12:30:18;;;;;;;3.87;2.30;;;25.30;48.30;;;;;;4962057;28;20139;-70
2023/06/23 12:32:43;;;;;;;5.93;2.40;;;25.40;48.10;;;;;;4977332;28;20051;-71
2023/06/23 12:35:09;;;;;;;5.27;2.40;;;25.60;47.30;;;;;;4965200;28;20203;-71
2023/06/23 12:37:45;;;;;;;4.23;2.23;;;25.60;47.70;;;;;;4981966;28;20039;-71
2023/06/23 12:40:30;;;;;;;13.27;3.87;;;25.70;47.70;;;;;;4976422;28;20039;-71
2023/06/23 12:42:57;;;;;;;4.07;2.70;;;25.70;46.90;;;;;;4979005;28;20495;-70
2023/06/23 12:45:24;;;;;;;3.50;2.30;;;25.60;47.70;;;;;;4976704;28;20073;-70
2023/06/23 12:47:54;;;;;;;5.20;1.90;;;25.70;46.40;;;;;;4976976;28;20423;-70